sensor_id;sensor_type;location;lat;lon;timestamp;temperature;humidity
12815;DHT22;6472;52.328;13.070;2023-04-25T00:00:25;8.50;99.90
12815;DHT22;6472;52.328;13.070;2023-04-25T00:02:53;8.50;99.90
12815;DHT22;6472;52.328;13.070;2023-04-25T00:05:23;8.50;99.90
12815;DHT22;6472;52.328;13.070;2023-04-25T00:07:51;8.40;99.90
12815;DHT22;6472;52.328;13.070;2023-04-25T00:10:20;8.40;99.90
12815;DHT22;6472;52.328;13.070;2023-04-25T00:12:48;8.40;99.90
12815;DHT22;6472;52.328;13.070;2023-04-25T00:15:16;8.30;99.90
12815;DHT22;6472;52.328;13.070;2023-04-25T00:17:45;8.40;99.90
12815;DHT22;6472;52.328;13.070;2023-04-25T00:20:13;8.40;99.90
12815;DHT22;6472;52.328;13.070;2023-04-25T00:22:42;8.40;99.90
12815;DHT22;6472;52.328;13.070;2023-04-25T00:25:10;8.30;99.90
12815;DHT22;6472;52.328;13.070;2023-04-25T00:27:38;8.30;99.90
12815;DHT22;6472;52.328;13.070;2023-04-25T00:30:09;8.30;99.90
12815;DHT22;6472;52.328;13.070;2023-04-25T00:32:37;8.20;99.90
12815;DHT22;6472;52.328;13.070;2023-04-25T00:35:07;8.30;99.90
12815;DHT22;6472;52.328;13.070;2023-04-25T00:37:35;8.30;99.90
12815;DHT22;6472;52.328;13.070;2023-04-25T00:40:05;8.20;99.90
12815;DHT22;6472;52.328;13.070;2023-04-25T00:42:35;8.20;99.90
12815;DHT22;6472;52.328;13.070;2023-04-25T00:45:05;8.20;99.90
12815;DHT22;6472;52.328;13.070;2023-04-25T00:47:35;8.20;99.90
12815;DHT22;6472;52.328;13.070;2023-04-25T00:50:06;8.20;99.90
12815;DHT22;6472;52.328;13.070;2023-04-25T00:52:35;8.10;99.90
12815;DHT22;6472;52.328;13.070;2023-04-25T00:55:04;8.10;99.90
12815;DHT22;6472;52.328;13.070;2023-04-25T00:57:33;8.00;99.90
12815;DHT22;6472;52.328;13.070;2023-04-25T01:00:02;8.00;99.90
12815;DHT22;6472;52.328;13.070;2023-04-25T01:02:32;8.00;99.90
12815;DHT22;6472;52.328;13.070;2023-04-25T01:05:01;8.00;99.90
12815;DHT22;6472;52.328;13.070;2023-04-25T01:07:30;8.10;99.90
12815;DHT22;6472;52.328;13.070;2023-04-25T01:09:59;8.10;99.90
12815;DHT22;6472;52.328;13.070;2023-04-25T01:12:27;8.00;99.90
12815;DHT22;6472;52.328;13.070;2023-04-25T01:14:55;8.00;99.90
12815;DHT22;6472;52.328;13.070;2023-04-25T01:17:23;8.00;99.90
12815;DHT22;6472;52.328;13.070;2023-04-25T01:19:51;7.90;99.90
12815;DHT22;6472;52.328;13.070;2023-04-25T01:22:20;7.90;99.90
12815;DHT22;6472;52.328;13.070;2023-04-25T01:24:49;7.90;99.90
12815;DHT22;6472;52.328;13.070;2023-04-25T01:27:17;7.90;99.90
12815;DHT22;6472;52.328;13.070;2023-04-25T01:29:46;7.90;99.90
12815;DHT22;6472;52.328;13.070;2023-04-25T01:32:14;7.80;99.90
12815;DHT22;6472;52.328;13.070;2023-04-25T01:34:42;7.80;99.90
12815;DHT22;6472;52.328;13.070;2023-04-25T01:37:10;7.80;99.90
12815;DHT22;6472;52.328;13.070;2023-04-25T01:39:39;7.90;99.90
12815;DHT22;6472;52.328;13.070;2023-04-25T01:42:08;7.90;99.90
12815;DHT22;6472;52.328;13.070;2023-04-25T01:44:36;7.90;99.90
12815;DHT22;6472;52.328;13.070;2023-04-25T01:47:04;7.90;99.90
12815;DHT22;6472;52.328;13.070;2023-04-25T01:49:32;7.80;99.90
12815;DHT22;6472;52.328;13.070;2023-04-25T01:52:00;7.80;99.90
12815;DHT22;6472;52.328;13.070;2023-04-25T01:54:28;7.80;99.90
12815;DHT22;6472;52.328;13.070;2023-04-25T01:56:58;7.80;99.90
12815;DHT22;6472;52.328;13.070;2023-04-25T01:59:27;7.70;99.90
12815;DHT22;6472;52.328;13.070;2023-04-25T02:01:55;7.70;99.90
12815;DHT22;6472;52.328;13.070;2023-04-25T02:04:23;7.80;99.90
12815;DHT22;6472;52.328;13.070;2023-04-25T02:06:51;7.90;99.90
12815;DHT22;6472;52.328;13.070;2023-04-25T02:09:19;7.80;99.90
12815;DHT22;6472;52.328;13.070;2023-04-25T02:11:47;7.80;99.90
12815;DHT22;6472;52.328;13.070;2023-04-25T02:14:16;7.70;99.90
12815;DHT22;6472;52.328;13.070;2023-04-25T02:16:44;7.70;99.90
12815;DHT22;6472;52.328;13.070;2023-04-25T02:19:13;7.80;99.90
12815;DHT22;6472;52.328;13.070;2023-04-25T02:21:42;7.70;99.90
12815;DHT22;6472;52.328;13.070;2023-04-25T02:24:10;7.70;99.90
12815;DHT22;6472;52.328;13.070;2023-04-25T02:26:38;7.70;99.90
12815;DHT22;6472;52.328;13.070;2023-04-25T02:29:06;7.70;99.90
12815;DHT22;6472;52.328;13.070;2023-04-25T02:31:36;7.70;99.90
12815;DHT22;6472;52.328;13.070;2023-04-25T02:34:04;7.80;99.90
12815;DHT22;6472;52.328;13.070;2023-04-25T02:36:32;7.70;99.90
12815;DHT22;6472;52.328;13.070;2023-04-25T02:39:01;7.70;99.90
12815;DHT22;6472;52.328;13.070;2023-04-25T02:41:29;7.60;99.90
12815;DHT22;6472;52.328;13.070;2023-04-25T02:43:57;7.60;99.90
12815;DHT22;6472;52.328;13.070;2023-04-25T02:46:25;7.60;99.90
12815;DHT22;6472;52.328;13.070;2023-04-25T02:49:06;7.70;99.90
12815;DHT22;6472;52.328;13.070;2023-04-25T02:51:34;7.70;99.90
12815;DHT22;6472;52.328;13.070;2023-04-25T02:54:02;7.60;99.90
12815;DHT22;6472;52.328;13.070;2023-04-25T02:56:30;7.70;99.90
12815;DHT22;6472;52.328;13.070;2023-04-25T02:58:59;7.60;99.90
12815;DHT22;6472;52.328;13.070;2023-04-25T03:01:27;7.60;99.90
12815;DHT22;6472;52.328;13.070;2023-04-25T03:03:55;7.70;99.90
12815;DHT22;6472;52.328;13.070;2023-04-25T03:06:24;7.60;99.90
12815;DHT22;6472;52.328;13.070;2023-04-25T03:08:52;7.60;99.90
12815;DHT22;6472;52.328;13.070;2023-04-25T03:11:20;7.50;99.90
12815;DHT22;6472;52.328;13.070;2023-04-25T03:13:48;7.60;99.90
12815;DHT22;6472;52.328;13.070;2023-04-25T03:16:17;7.50;99.90
12815;DHT22;6472;52.328;13.070;2023-04-25T03:18:45;7.50;99.90
12815;DHT22;6472;52.328;13.070;2023-04-25T03:21:13;7.50;99.90
12815;DHT22;6472;52.328;13.070;2023-04-25T03:23:42;7.50;99.90
12815;DHT22;6472;52.328;13.070;2023-04-25T03:26:10;7.50;99.90
12815;DHT22;6472;52.328;13.070;2023-04-25T03:28:38;7.60;99.90
12815;DHT22;6472;52.328;13.070;2023-04-25T03:31:06;7.50;99.90
12815;DHT22;6472;52.328;13.070;2023-04-25T03:33:34;7.50;99.90
12815;DHT22;6472;52.328;13.070;2023-04-25T03:36:03;7.50;99.90
12815;DHT22;6472;52.328;13.070;2023-04-25T03:38:31;7.60;99.90
12815;DHT22;6472;52.328;13.070;2023-04-25T03:41:00;7.50;99.90
12815;DHT22;6472;52.328;13.070;2023-04-25T03:43:28;7.40;99.90
12815;DHT22;6472;52.328;13.070;2023-04-25T03:45:56;7.40;99.90
12815;DHT22;6472;52.328;13.070;2023-04-25T03:48:25;7.30;99.90
12815;DHT22;6472;52.328;13.070;2023-04-25T03:50:53;7.30;99.90
12815;DHT22;6472;52.328;13.070;2023-04-25T03:53:21;7.30;99.90
12815;DHT22;6472;52.328;13.070;2023-04-25T03:55:49;7.30;99.90
12815;DHT22;6472;52.328;13.070;2023-04-25T03:58:19;7.40;99.90
12815;DHT22;6472;52.328;13.070;2023-04-25T04:00:47;7.30;99.90
12815;DHT22;6472;52.328;13.070;2023-04-25T04:03:14;7.40;99.90
12815;DHT22;6472;52.328;13.070;2023-04-25T04:05:43;7.30;99.90
12815;DHT22;6472;52.328;13.070;2023-04-25T04:08:12;7.40;99.90
12815;DHT22;6472;52.328;13.070;2023-04-25T04:10:39;7.40;99.90
12815;DHT22;6472;52.328;13.070;2023-04-25T04:13:07;7.40;99.90
12815;DHT22;6472;52.328;13.070;2023-04-25T04:15:37;7.30;99.90
12815;DHT22;6472;52.328;13.070;2023-04-25T04:18:05;7.40;99.90
12815;DHT22;6472;52.328;13.070;2023-04-25T04:20:33;7.50;99.90
12815;DHT22;6472;52.328;13.070;2023-04-25T04:23:01;7.40;99.90
12815;DHT22;6472;52.328;13.070;2023-04-25T04:25:29;7.40;99.90
12815;DHT22;6472;52.328;13.070;2023-04-25T04:27:57;7.40;99.90
12815;DHT22;6472;52.328;13.070;2023-04-25T04:30:26;7.50;99.90
12815;DHT22;6472;52.328;13.070;2023-04-25T04:32:57;7.60;99.90
12815;DHT22;6472;52.328;13.070;2023-04-25T04:35:25;7.60;99.90
12815;DHT22;6472;52.328;13.070;2023-04-25T04:37:53;7.60;99.90
12815;DHT22;6472;52.328;13.070;2023-04-25T04:40:22;7.60;99.90
12815;DHT22;6472;52.328;13.070;2023-04-25T04:42:50;7.70;99.90
12815;DHT22;6472;52.328;13.070;2023-04-25T04:45:18;7.70;99.90
12815;DHT22;6472;52.328;13.070;2023-04-25T04:47:47;7.70;99.90
12815;DHT22;6472;52.328;13.070;2023-04-25T04:50:16;7.80;99.90
12815;DHT22;6472;52.328;13.070;2023-04-25T04:52:44;7.80;99.90
12815;DHT22;6472;52.328;13.070;2023-04-25T04:55:12;7.80;99.90
12815;DHT22;6472;52.328;13.070;2023-04-25T04:57:40;7.80;99.90
12815;DHT22;6472;52.328;13.070;2023-04-25T05:00:10;7.90;99.90
12815;DHT22;6472;52.328;13.070;2023-04-25T05:02:38;7.90;99.90
12815;DHT22;6472;52.328;13.070;2023-04-25T05:05:07;7.90;99.90
12815;DHT22;6472;52.328;13.070;2023-04-25T05:07:37;8.00;99.90
12815;DHT22;6472;52.328;13.070;2023-04-25T05:10:06;8.00;99.90
12815;DHT22;6472;52.328;13.070;2023-04-25T05:12:34;8.10;99.90
12815;DHT22;6472;52.328;13.070;2023-04-25T05:15:03;8.10;99.90
12815;DHT22;6472;52.328;13.070;2023-04-25T05:17:31;8.10;99.90
12815;DHT22;6472;52.328;13.070;2023-04-25T05:19:59;8.20;99.90
12815;DHT22;6472;52.328;13.070;2023-04-25T05:22:28;8.20;99.90
12815;DHT22;6472;52.328;13.070;2023-04-25T05:24:57;8.20;99.90
12815;DHT22;6472;52.328;13.070;2023-04-25T05:27:25;8.40;99.90
12815;DHT22;6472;52.328;13.070;2023-04-25T05:29:53;8.50;99.90
12815;DHT22;6472;52.328;13.070;2023-04-25T05:32:21;8.50;99.90
12815;DHT22;6472;52.328;13.070;2023-04-25T05:34:50;8.40;99.90
12815;DHT22;6472;52.328;13.070;2023-04-25T05:37:18;8.40;99.90
12815;DHT22;6472;52.328;13.070;2023-04-25T05:39:46;8.30;99.90
12815;DHT22;6472;52.328;13.070;2023-04-25T05:42:15;8.40;99.90
12815;DHT22;6472;52.328;13.070;2023-04-25T05:44:44;8.50;99.90
12815;DHT22;6472;52.328;13.070;2023-04-25T05:47:12;8.90;99.90
12815;DHT22;6472;52.328;13.070;2023-04-25T05:49:40;9.60;99.90
12815;DHT22;6472;52.328;13.070;2023-04-25T05:52:08;10.50;99.90
12815;DHT22;6472;52.328;13.070;2023-04-25T05:54:36;10.90;99.90
12815;DHT22;6472;52.328;13.070;2023-04-25T05:57:04;10.80;99.90
12815;DHT22;6472;52.328;13.070;2023-04-25T05:59:33;10.50;99.90
12815;DHT22;6472;52.328;13.070;2023-04-25T06:02:01;10.30;99.90
12815;DHT22;6472;52.328;13.070;2023-04-25T06:04:29;10.00;99.90
12815;DHT22;6472;52.328;13.070;2023-04-25T06:06:57;10.00;99.90
12815;DHT22;6472;52.328;13.070;2023-04-25T06:09:25;9.90;99.90
12815;DHT22;6472;52.328;13.070;2023-04-25T06:11:53;9.70;99.90
12815;DHT22;6472;52.328;13.070;2023-04-25T06:14:21;9.50;99.90
12815;DHT22;6472;52.328;13.070;2023-04-25T06:16:56;9.40;99.90
12815;DHT22;6472;52.328;13.070;2023-04-25T06:19:24;9.30;99.90
12815;DHT22;6472;52.328;13.070;2023-04-25T06:21:52;9.20;99.90
12815;DHT22;6472;52.328;13.070;2023-04-25T06:24:20;9.40;99.90
12815;DHT22;6472;52.328;13.070;2023-04-25T06:26:48;9.50;99.90
12815;DHT22;6472;52.328;13.070;2023-04-25T06:29:16;9.70;99.90
12815;DHT22;6472;52.328;13.070;2023-04-25T06:31:44;10.00;99.90
12815;DHT22;6472;52.328;13.070;2023-04-25T06:34:14;10.10;99.90
12815;DHT22;6472;52.328;13.070;2023-04-25T06:36:42;10.10;99.90
12815;DHT22;6472;52.328;13.070;2023-04-25T06:39:11;10.00;99.90
12815;DHT22;6472;52.328;13.070;2023-04-25T06:41:39;9.80;99.90
12815;DHT22;6472;52.328;13.070;2023-04-25T06:44:07;9.50;99.90
12815;DHT22;6472;52.328;13.070;2023-04-25T06:46:35;9.40;99.90
12815;DHT22;6472;52.328;13.070;2023-04-25T06:49:04;9.20;99.90
12815;DHT22;6472;52.328;13.070;2023-04-25T06:51:34;9.10;99.90
12815;DHT22;6472;52.328;13.070;2023-04-25T06:54:01;9.10;99.90
12815;DHT22;6472;52.328;13.070;2023-04-25T06:56:30;9.10;99.90
12815;DHT22;6472;52.328;13.070;2023-04-25T06:58:58;9.00;99.90
12815;DHT22;6472;52.328;13.070;2023-04-25T07:01:27;9.10;99.90
12815;DHT22;6472;52.328;13.070;2023-04-25T07:03:55;8.80;99.90
12815;DHT22;6472;52.328;13.070;2023-04-25T07:06:24;8.70;99.90
12815;DHT22;6472;52.328;13.070;2023-04-25T07:08:54;8.80;99.90
12815;DHT22;6472;52.328;13.070;2023-04-25T07:11:23;8.70;99.90
12815;DHT22;6472;52.328;13.070;2023-04-25T07:13:53;8.60;99.90
12815;DHT22;6472;52.328;13.070;2023-04-25T07:16:21;8.60;99.90
12815;DHT22;6472;52.328;13.070;2023-04-25T07:18:49;8.40;99.90
12815;DHT22;6472;52.328;13.070;2023-04-25T07:21:18;8.40;99.90
12815;DHT22;6472;52.328;13.070;2023-04-25T07:23:46;8.30;99.90
12815;DHT22;6472;52.328;13.070;2023-04-25T07:26:15;8.20;99.90
12815;DHT22;6472;52.328;13.070;2023-04-25T07:28:44;8.20;99.90
12815;DHT22;6472;52.328;13.070;2023-04-25T07:31:12;8.20;99.90
12815;DHT22;6472;52.328;13.070;2023-04-25T07:33:40;8.30;99.90
12815;DHT22;6472;52.328;13.070;2023-04-25T07:36:08;8.40;99.90
12815;DHT22;6472;52.328;13.070;2023-04-25T07:38:36;8.50;99.90
12815;DHT22;6472;52.328;13.070;2023-04-25T07:41:04;8.50;99.90
12815;DHT22;6472;52.328;13.070;2023-04-25T07:43:34;8.70;99.90
12815;DHT22;6472;52.328;13.070;2023-04-25T07:46:02;8.90;99.90
12815;DHT22;6472;52.328;13.070;2023-04-25T07:48:30;8.90;99.90
12815;DHT22;6472;52.328;13.070;2023-04-25T07:50:58;9.10;99.90
12815;DHT22;6472;52.328;13.070;2023-04-25T07:53:26;8.90;99.90
12815;DHT22;6472;52.328;13.070;2023-04-25T07:55:54;8.80;99.90
12815;DHT22;6472;52.328;13.070;2023-04-25T07:58:22;8.70;99.90
12815;DHT22;6472;52.328;13.070;2023-04-25T08:00:51;8.80;99.90
12815;DHT22;6472;52.328;13.070;2023-04-25T08:03:19;8.60;99.90
12815;DHT22;6472;52.328;13.070;2023-04-25T08:05:48;8.50;99.90
12815;DHT22;6472;52.328;13.070;2023-04-25T08:08:16;8.60;99.90
12815;DHT22;6472;52.328;13.070;2023-04-25T08:10:44;8.70;99.90
12815;DHT22;6472;52.328;13.070;2023-04-25T08:13:12;9.00;99.90
12815;DHT22;6472;52.328;13.070;2023-04-25T08:15:40;9.20;99.90
12815;DHT22;6472;52.328;13.070;2023-04-25T08:18:10;9.40;99.90
12815;DHT22;6472;52.328;13.070;2023-04-25T08:20:39;9.50;99.90
12815;DHT22;6472;52.328;13.070;2023-04-25T08:23:07;9.50;99.90
12815;DHT22;6472;52.328;13.070;2023-04-25T08:25:37;9.60;99.90
12815;DHT22;6472;52.328;13.070;2023-04-25T08:28:05;9.60;99.90
12815;DHT22;6472;52.328;13.070;2023-04-25T08:30:33;9.60;99.90
12815;DHT22;6472;52.328;13.070;2023-04-25T08:33:01;9.80;99.90
12815;DHT22;6472;52.328;13.070;2023-04-25T08:35:31;9.80;99.90
12815;DHT22;6472;52.328;13.070;2023-04-25T08:37:59;10.00;99.90
12815;DHT22;6472;52.328;13.070;2023-04-25T08:40:28;10.00;99.90
12815;DHT22;6472;52.328;13.070;2023-04-25T08:42:57;10.10;99.90
12815;DHT22;6472;52.328;13.070;2023-04-25T08:45:27;10.30;99.90
12815;DHT22;6472;52.328;13.070;2023-04-25T08:47:57;10.70;99.90
12815;DHT22;6472;52.328;13.070;2023-04-25T08:50:25;11.10;99.90
12815;DHT22;6472;52.328;13.070;2023-04-25T08:52:55;11.40;99.90
12815;DHT22;6472;52.328;13.070;2023-04-25T08:55:28;11.60;99.90
12815;DHT22;6472;52.328;13.070;2023-04-25T08:57:57;11.90;99.90
12815;DHT22;6472;52.328;13.070;2023-04-25T09:00:28;12.00;99.90
12815;DHT22;6472;52.328;13.070;2023-04-25T09:02:56;12.40;99.90
12815;DHT22;6472;52.328;13.070;2023-04-25T09:05:26;13.00;98.10
12815;DHT22;6472;52.328;13.070;2023-04-25T09:07:56;13.20;98.20
12815;DHT22;6472;52.328;13.070;2023-04-25T09:10:24;13.50;97.50
12815;DHT22;6472;52.328;13.070;2023-04-25T09:13:04;13.50;95.40
12815;DHT22;6472;52.328;13.070;2023-04-25T09:15:32;13.50;91.80
12815;DHT22;6472;52.328;13.070;2023-04-25T09:18:01;12.50;91.30
12815;DHT22;6472;52.328;13.070;2023-04-25T09:20:31;12.10;94.90
12815;DHT22;6472;52.328;13.070;2023-04-25T09:23:11;12.40;95.90
12815;DHT22;6472;52.328;13.070;2023-04-25T09:25:43;12.50;92.80
12815;DHT22;6472;52.328;13.070;2023-04-25T09:28:29;12.80;92.10
12815;DHT22;6472;52.328;13.070;2023-04-25T09:31:11;13.30;90.70
12815;DHT22;6472;52.328;13.070;2023-04-25T09:33:41;12.80;89.80
12815;DHT22;6472;52.328;13.070;2023-04-25T09:36:11;12.70;89.00
12815;DHT22;6472;52.328;13.070;2023-04-25T09:38:54;12.40;90.20
12815;DHT22;6472;52.328;13.070;2023-04-25T09:41:23;11.80;88.40
12815;DHT22;6472;52.328;13.070;2023-04-25T09:43:51;11.20;91.40
12815;DHT22;6472;52.328;13.070;2023-04-25T09:46:19;11.50;93.00
12815;DHT22;6472;52.328;13.070;2023-04-25T09:48:49;11.60;93.90
12815;DHT22;6472;52.328;13.070;2023-04-25T09:51:17;12.00;87.50
12815;DHT22;6472;52.328;13.070;2023-04-25T09:53:46;12.00;90.40
12815;DHT22;6472;52.328;13.070;2023-04-25T09:56:20;12.10;85.70
12815;DHT22;6472;52.328;13.070;2023-04-25T09:58:50;12.20;82.20
12815;DHT22;6472;52.328;13.070;2023-04-25T10:01:21;11.90;84.70
12815;DHT22;6472;52.328;13.070;2023-04-25T10:03:51;11.90;84.00
12815;DHT22;6472;52.328;13.070;2023-04-25T10:06:22;11.70;84.10
12815;DHT22;6472;52.328;13.070;2023-04-25T10:08:53;11.10;84.70
12815;DHT22;6472;52.328;13.070;2023-04-25T10:11:24;10.80;86.50
12815;DHT22;6472;52.328;13.070;2023-04-25T10:13:54;11.40;85.90
12815;DHT22;6472;52.328;13.070;2023-04-25T10:16:22;11.40;83.80
12815;DHT22;6472;52.328;13.070;2023-04-25T10:18:50;11.40;83.30
12815;DHT22;6472;52.328;13.070;2023-04-25T10:21:20;11.50;84.00
12815;DHT22;6472;52.328;13.070;2023-04-25T10:23:49;11.40;82.30
12815;DHT22;6472;52.328;13.070;2023-04-25T10:26:18;11.40;86.20
12815;DHT22;6472;52.328;13.070;2023-04-25T10:28:58;11.30;82.80
12815;DHT22;6472;52.328;13.070;2023-04-25T10:31:26;11.20;83.50
12815;DHT22;6472;52.328;13.070;2023-04-25T10:33:54;11.30;81.70
12815;DHT22;6472;52.328;13.070;2023-04-25T10:36:24;11.20;81.90
12815;DHT22;6472;52.328;13.070;2023-04-25T10:38:53;11.30;83.40
12815;DHT22;6472;52.328;13.070;2023-04-25T10:41:22;11.10;84.20
12815;DHT22;6472;52.328;13.070;2023-04-25T10:44:00;11.10;84.20
12815;DHT22;6472;52.328;13.070;2023-04-25T10:46:29;11.00;84.30
12815;DHT22;6472;52.328;13.070;2023-04-25T10:49:00;11.20;86.20
12815;DHT22;6472;52.328;13.070;2023-04-25T10:51:29;11.50;82.90
12815;DHT22;6472;52.328;13.070;2023-04-25T10:54:18;11.60;80.80
12815;DHT22;6472;52.328;13.070;2023-04-25T10:56:48;11.40;79.50
12815;DHT22;6472;52.328;13.070;2023-04-25T10:59:18;11.40;82.20
12815;DHT22;6472;52.328;13.070;2023-04-25T11:01:51;11.50;78.90
12815;DHT22;6472;52.328;13.070;2023-04-25T11:04:20;11.50;81.80
12815;DHT22;6472;52.328;13.070;2023-04-25T11:07:05;11.40;78.30
12815;DHT22;6472;52.328;13.070;2023-04-25T11:09:35;11.50;79.20
12815;DHT22;6472;52.328;13.070;2023-04-25T11:12:06;11.60;80.30
12815;DHT22;6472;52.328;13.070;2023-04-25T11:14:36;11.80;78.80
12815;DHT22;6472;52.328;13.070;2023-04-25T11:17:07;11.70;76.70
12815;DHT22;6472;52.328;13.070;2023-04-25T11:19:35;11.50;79.40
12815;DHT22;6472;52.328;13.070;2023-04-25T11:22:03;11.30;80.30
12815;DHT22;6472;52.328;13.070;2023-04-25T11:24:34;11.00;81.10
12815;DHT22;6472;52.328;13.070;2023-04-25T11:27:03;10.80;80.90
12815;DHT22;6472;52.328;13.070;2023-04-25T11:29:33;10.70;82.50
12815;DHT22;6472;52.328;13.070;2023-04-25T11:32:03;10.50;81.80
12815;DHT22;6472;52.328;13.070;2023-04-25T11:34:33;10.30;83.90
12815;DHT22;6472;52.328;13.070;2023-04-25T11:37:01;10.30;82.40
12815;DHT22;6472;52.328;13.070;2023-04-25T11:39:30;10.30;82.10
12815;DHT22;6472;52.328;13.070;2023-04-25T11:41:58;10.30;80.60
12815;DHT22;6472;52.328;13.070;2023-04-25T11:44:28;10.30;79.90
12815;DHT22;6472;52.328;13.070;2023-04-25T11:46:56;10.10;81.30
12815;DHT22;6472;52.328;13.070;2023-04-25T11:49:30;10.10;82.20
12815;DHT22;6472;52.328;13.070;2023-04-25T11:51:58;10.30;80.40
12815;DHT22;6472;52.328;13.070;2023-04-25T11:54:26;10.30;80.60
12815;DHT22;6472;52.328;13.070;2023-04-25T11:56:54;10.50;80.90
12815;DHT22;6472;52.328;13.070;2023-04-25T11:59:24;10.60;81.70
12815;DHT22;6472;52.328;13.070;2023-04-25T12:01:53;10.90;83.30
12815;DHT22;6472;52.328;13.070;2023-04-25T12:04:22;11.20;81.80
12815;DHT22;6472;52.328;13.070;2023-04-25T12:06:53;11.30;77.00
12815;DHT22;6472;52.328;13.070;2023-04-25T12:09:28;11.10;74.00
12815;DHT22;6472;52.328;13.070;2023-04-25T12:11:58;11.00;71.40
12815;DHT22;6472;52.328;13.070;2023-04-25T12:14:27;11.10;70.40
12815;DHT22;6472;52.328;13.070;2023-04-25T12:17:16;11.10;70.70
12815;DHT22;6472;52.328;13.070;2023-04-25T12:19:47;11.20;71.70
12815;DHT22;6472;52.328;13.070;2023-04-25T12:22:23;11.20;70.10
12815;DHT22;6472;52.328;13.070;2023-04-25T12:24:52;11.40;72.80
12815;DHT22;6472;52.328;13.070;2023-04-25T12:27:21;11.10;71.90
12815;DHT22;6472;52.328;13.070;2023-04-25T12:29:53;11.20;70.70
12815;DHT22;6472;52.328;13.070;2023-04-25T12:32:22;11.10;71.00
12815;DHT22;6472;52.328;13.070;2023-04-25T12:34:50;11.20;75.00
12815;DHT22;6472;52.328;13.070;2023-04-25T12:37:19;11.20;72.50
12815;DHT22;6472;52.328;13.070;2023-04-25T12:39:49;11.20;72.40
12815;DHT22;6472;52.328;13.070;2023-04-25T12:42:17;11.10;71.50
12815;DHT22;6472;52.328;13.070;2023-04-25T12:44:45;10.80;71.50
12815;DHT22;6472;52.328;13.070;2023-04-25T12:47:15;10.80;71.90
12815;DHT22;6472;52.328;13.070;2023-04-25T12:49:48;10.70;74.40
12815;DHT22;6472;52.328;13.070;2023-04-25T12:52:16;10.50;75.80
12815;DHT22;6472;52.328;13.070;2023-04-25T12:54:45;10.50;77.00
12815;DHT22;6472;52.328;13.070;2023-04-25T12:57:15;10.50;77.30
12815;DHT22;6472;52.328;13.070;2023-04-25T12:59:43;10.60;77.10
12815;DHT22;6472;52.328;13.070;2023-04-25T13:02:11;10.60;77.20
12815;DHT22;6472;52.328;13.070;2023-04-25T13:04:40;10.70;76.40
12815;DHT22;6472;52.328;13.070;2023-04-25T13:07:08;10.80;78.30
12815;DHT22;6472;52.328;13.070;2023-04-25T13:09:37;11.00;77.90
12815;DHT22;6472;52.328;13.070;2023-04-25T13:12:05;11.10;77.00
12815;DHT22;6472;52.328;13.070;2023-04-25T13:14:36;11.30;78.60
12815;DHT22;6472;52.328;13.070;2023-04-25T13:17:04;11.30;76.00
12815;DHT22;6472;52.328;13.070;2023-04-25T13:19:32;11.50;79.40
12815;DHT22;6472;52.328;13.070;2023-04-25T13:22:00;11.70;73.60
12815;DHT22;6472;52.328;13.070;2023-04-25T13:24:31;11.70;73.20
12815;DHT22;6472;52.328;13.070;2023-04-25T13:26:59;11.60;73.70
12815;DHT22;6472;52.328;13.070;2023-04-25T13:29:28;11.40;73.10
12815;DHT22;6472;52.328;13.070;2023-04-25T13:31:57;11.30;73.60
12815;DHT22;6472;52.328;13.070;2023-04-25T13:34:26;11.50;77.80
12815;DHT22;6472;52.328;13.070;2023-04-25T13:36:54;11.70;74.20
12815;DHT22;6472;52.328;13.070;2023-04-25T13:39:22;11.70;72.90
12815;DHT22;6472;52.328;13.070;2023-04-25T13:41:50;11.70;74.20
12815;DHT22;6472;52.328;13.070;2023-04-25T13:44:18;11.80;74.50
12815;DHT22;6472;52.328;13.070;2023-04-25T13:46:46;11.80;74.20
12815;DHT22;6472;52.328;13.070;2023-04-25T13:49:16;11.70;74.40
12815;DHT22;6472;52.328;13.070;2023-04-25T13:51:44;11.70;72.70
12815;DHT22;6472;52.328;13.070;2023-04-25T13:54:12;11.70;74.80
12815;DHT22;6472;52.328;13.070;2023-04-25T13:56:40;11.60;74.60
12815;DHT22;6472;52.328;13.070;2023-04-25T13:59:09;11.40;73.20
12815;DHT22;6472;52.328;13.070;2023-04-25T14:01:37;11.20;75.80
12815;DHT22;6472;52.328;13.070;2023-04-25T14:04:05;10.90;75.60
12815;DHT22;6472;52.328;13.070;2023-04-25T14:06:35;10.70;77.10
12815;DHT22;6472;52.328;13.070;2023-04-25T14:09:04;10.60;80.00
12815;DHT22;6472;52.328;13.070;2023-04-25T14:11:33;10.60;80.00
12815;DHT22;6472;52.328;13.070;2023-04-25T14:14:01;10.40;77.40
12815;DHT22;6472;52.328;13.070;2023-04-25T14:16:29;10.20;77.40
12815;DHT22;6472;52.328;13.070;2023-04-25T14:18:58;10.10;78.30
12815;DHT22;6472;52.328;13.070;2023-04-25T14:21:27;10.00;80.10
12815;DHT22;6472;52.328;13.070;2023-04-25T14:23:56;9.80;83.60
12815;DHT22;6472;52.328;13.070;2023-04-25T14:26:24;9.60;84.00
12815;DHT22;6472;52.328;13.070;2023-04-25T14:28:52;9.60;87.10
12815;DHT22;6472;52.328;13.070;2023-04-25T14:31:20;9.80;86.50
12815;DHT22;6472;52.328;13.070;2023-04-25T14:33:48;9.80;85.20
12815;DHT22;6472;52.328;13.070;2023-04-25T14:36:17;9.90;86.50
12815;DHT22;6472;52.328;13.070;2023-04-25T14:38:45;10.00;84.70
12815;DHT22;6472;52.328;13.070;2023-04-25T14:41:14;10.20;85.00
12815;DHT22;6472;52.328;13.070;2023-04-25T14:43:42;10.40;81.80
12815;DHT22;6472;52.328;13.070;2023-04-25T14:46:12;10.30;79.70
12815;DHT22;6472;52.328;13.070;2023-04-25T14:48:40;10.30;79.90
12815;DHT22;6472;52.328;13.070;2023-04-25T14:51:08;10.10;80.10
12815;DHT22;6472;52.328;13.070;2023-04-25T14:53:36;10.00;80.60
12815;DHT22;6472;52.328;13.070;2023-04-25T14:56:04;9.90;81.90
12815;DHT22;6472;52.328;13.070;2023-04-25T14:58:35;9.90;84.30
12815;DHT22;6472;52.328;13.070;2023-04-25T15:01:03;9.70;84.60
12815;DHT22;6472;52.328;13.070;2023-04-25T15:03:31;9.80;84.20
12815;DHT22;6472;52.328;13.070;2023-04-25T15:06:00;9.60;87.20
12815;DHT22;6472;52.328;13.070;2023-04-25T15:08:28;9.80;86.40
12815;DHT22;6472;52.328;13.070;2023-04-25T15:10:56;9.70;85.40
12815;DHT22;6472;52.328;13.070;2023-04-25T15:13:25;9.90;87.50
12815;DHT22;6472;52.328;13.070;2023-04-25T15:15:55;9.90;86.70
12815;DHT22;6472;52.328;13.070;2023-04-25T15:18:23;10.00;86.50
12815;DHT22;6472;52.328;13.070;2023-04-25T15:20:52;10.10;85.70
12815;DHT22;6472;52.328;13.070;2023-04-25T15:23:21;10.20;87.00
12815;DHT22;6472;52.328;13.070;2023-04-25T15:25:50;10.20;85.70
12815;DHT22;6472;52.328;13.070;2023-04-25T15:28:19;10.40;87.30
12815;DHT22;6472;52.328;13.070;2023-04-25T15:30:48;10.40;84.70
12815;DHT22;6472;52.328;13.070;2023-04-25T15:33:18;10.20;83.50
12815;DHT22;6472;52.328;13.070;2023-04-25T15:35:46;10.10;85.30
12815;DHT22;6472;52.328;13.070;2023-04-25T15:38:14;10.10;84.10
12815;DHT22;6472;52.328;13.070;2023-04-25T15:40:42;10.00;85.00
12815;DHT22;6472;52.328;13.070;2023-04-25T15:43:10;9.80;86.80
12815;DHT22;6472;52.328;13.070;2023-04-25T15:45:42;9.90;89.00
12815;DHT22;6472;52.328;13.070;2023-04-25T15:48:11;9.80;89.30
12815;DHT22;6472;52.328;13.070;2023-04-25T15:50:41;9.90;87.40